Time;durP1;ratioP1;P1;durP2;ratioP2;P2;SDS_P1;SDS_P2;PMS_P1;PMS_P2;Temp;Humidity;BMP_temperature;BMP_pressure;BME280_temperature;BME280_humidity;BME280_pressure;Samples;Min_cycle;Max_cycle;Signal;HPM_P1;HPM_P2
2021/08/06 00:00:59;;;;;;;;;;;17.10;99.90;;;;;;5156654;27;20632;-87
2021/08/06 00:03:25;;;;;;;;;;;17.10;99.90;;;;;;5137836;27;20154;-87
2021/08/06 00:05:54;;;;;;;;;;;17.10;99.90;;;;;;5137763;27;19929;-87
2021/08/06 00:08:20;;;;;;;;;;;17.00;99.90;;;;;;5155279;27;19927;-87
2021/08/06 00:10:46;;;;;;;;;;;17.00;99.90;;;;;;5156424;27;20520;-87
2021/08/06 00:13:12;;;;;;;;;;;17.00;99.90;;;;;;5137328;27;19919;-86
2021/08/06 00:15:38;;;;;;;;;;;17.00;99.90;;;;;;5158156;27;20297;-86
2021/08/06 00:18:03;;;;;;;;;;;17.00;99.90;;;;;;5128223;27;19926;-87
2021/08/06 00:20:29;;;;;;;;;;;17.00;99.90;;;;;;5148173;27;20200;-86
2021/08/06 00:22:55;;;;;;;;;;;17.00;99.90;;;;;;5147806;27;19923;-87
2021/08/06 00:25:21;;;;;;;;;;;17.00;99.90;;;;;;5148074;27;19958;-87
2021/08/06 00:27:47;;;;;;;;;;;17.00;99.90;;;;;;5147336;27;20378;-87
2021/08/06 00:30:13;;;;;;;;;;;17.00;99.90;;;;;;5147467;27;20029;-87
2021/08/06 00:32:38;;;;;;;;;;;17.00;99.90;;;;;;5147687;27;20223;-87
2021/08/06 00:35:04;;;;;;;;;;;17.00;99.90;;;;;;5147690;27;19919;-87
2021/08/06 00:37:30;;;;;;;;;;;17.00;99.90;;;;;;5147248;27;19927;-87
2021/08/06 00:39:56;;;;;;;;;;;17.00;99.90;;;;;;5129219;27;19923;-86
2021/08/06 00:42:21;;;;;;;;;;;17.00;99.90;;;;;;5147748;27;20013;-86
2021/08/06 00:44:47;;;;;;;;;;;17.00;99.90;;;;;;5146752;27;19923;-86
2021/08/06 00:47:13;;;;;;;;;;;17.00;99.90;;;;;;5129385;27;19923;-86
2021/08/06 00:49:39;;;;;;;;;;;17.00;99.90;;;;;;5128394;27;19923;-86
2021/08/06 00:52:05;;;;;;;;;;;17.00;99.90;;;;;;5156684;27;20281;-86
2021/08/06 00:54:31;;;;;;;;;;;17.00;99.90;;;;;;5167804;27;19930;-85
2021/08/06 00:56:57;;;;;;;;;;;17.00;99.90;;;;;;5167883;27;20063;-87
2021/08/06 00:59:23;;;;;;;;;;;17.00;99.90;;;;;;5115322;27;20080;-86
2021/08/06 01:01:58;;;;;;;;;;;17.00;99.90;;;;;;5147041;27;19926;-86
2021/08/06 01:04:34;;;;;;;;;;;17.00;99.90;;;;;;5156614;27;19946;-86
2021/08/06 01:07:06;;;;;;;;;;;17.00;99.90;;;;;;5154270;27;19930;-86
2021/08/06 01:09:44;;;;;;;;;;;17.00;99.90;;;;;;5146258;27;19923;-86
2021/08/06 01:12:12;;;;;;;;;;;17.00;99.90;;;;;;5168090;27;19918;-85
2021/08/06 01:14:40;;;;;;;;;;;16.90;99.90;;;;;;5168002;27;20278;-85
2021/08/06 01:17:06;;;;;;;;;;;17.00;99.90;;;;;;5165495;27;20082;-86
2021/08/06 01:19:47;;;;;;;;;;;17.00;99.90;;;;;;5167661;27;19974;-85
2021/08/06 01:22:22;;;;;;;;;;;17.00;99.90;;;;;;5149074;27;20010;-86
2021/08/06 01:24:52;;;;;;;;;;;17.00;99.90;;;;;;5168009;27;20403;-86
2021/08/06 01:27:21;;;;;;;;;;;17.00;99.90;;;;;;5156576;27;19923;-87
2021/08/06 01:29:46;;;;;;;;;;;17.00;99.90;;;;;;5146547;27;19939;-87
2021/08/06 01:32:12;;;;;;;;;;;17.00;99.90;;;;;;5146805;27;20427;-87
2021/08/06 01:34:38;;;;;;;;;;;17.00;99.90;;;;;;5146802;27;19977;-87
2021/08/06 01:37:04;;;;;;;;;;;17.00;99.90;;;;;;5146834;27;19919;-87
2021/08/06 01:39:29;;;;;;;;;;;17.00;99.90;;;;;;5127404;27;19923;-87
2021/08/06 01:42:05;;;;;;;;;;;17.00;99.90;;;;;;5111859;27;19991;-86
2021/08/06 01:44:31;;;;;;;;;;;17.00;99.90;;;;;;5146696;27;19968;-87
2021/08/06 01:46:56;;;;;;;;;;;17.00;99.90;;;;;;5147102;27;19919;-87
2021/08/06 01:49:29;;;;;;;;;;;17.00;99.90;;;;;;5147166;27;19980;-87
2021/08/06 01:51:57;;;;;;;;;;;17.00;99.90;;;;;;5130033;27;20022;-87
2021/08/06 01:54:23;;;;;;;;;;;17.00;99.90;;;;;;5128149;27;19922;-87
2021/08/06 01:56:50;;;;;;;;;;;17.20;99.90;;;;;;5134716;27;20412;-86
2021/08/06 01:59:16;;;;;;;;;;;17.10;99.90;;;;;;5134642;27;20390;-87
2021/08/06 02:01:42;;;;;;;;;;;17.10;99.90;;;;;;5172228;27;19919;-87
2021/08/06 02:04:07;;;;;;;;;;;17.10;99.90;;;;;;5140449;27;20301;-87
2021/08/06 02:06:34;;;;;;;;;;;17.00;99.90;;;;;;5153268;27;20010;-86
2021/08/06 02:09:00;;;;;;;;;;;17.00;99.90;;;;;;5153612;27;20361;-87
2021/08/06 02:11:27;;;;;;;;;;;17.00;99.90;;;;;;5152740;27;19923;-87
2021/08/06 02:13:53;;;;;;;;;;;17.00;99.90;;;;;;5153234;27;19965;-87
2021/08/06 02:16:22;;;;;;;;;;;17.00;99.90;;;;;;5153800;27;20338;-87
2021/08/06 02:18:48;;;;;;;;;;;17.00;99.90;;;;;;5153205;27;19919;-87
2021/08/06 02:21:16;;;;;;;;;;;16.90;99.90;;;;;;5152804;27;19958;-87
2021/08/06 02:23:44;;;;;;;;;;;16.90;99.90;;;;;;5154263;27;20843;-87
2021/08/06 02:26:11;;;;;;;;;;;17.00;99.90;;;;;;5127991;27;19922;-87
2021/08/06 02:28:38;;;;;;;;;;;16.90;99.90;;;;;;5153562;27;19926;-87
2021/08/06 02:31:03;;;;;;;;;;;16.90;99.90;;;;;;5152745;27;19950;-87
2021/08/06 02:33:30;;;;;;;;;;;16.80;99.90;;;;;;5152787;27;20011;-87
2021/08/06 02:35:55;;;;;;;;;;;16.80;99.90;;;;;;5159435;27;19927;-87
2021/08/06 02:38:22;;;;;;;;;;;16.80;99.90;;;;;;5150712;27;19941;-87
2021/08/06 02:40:49;;;;;;;;;;;16.70;99.90;;;;;;5140115;27;20271;-87
2021/08/06 02:43:15;;;;;;;;;;;16.70;99.90;;;;;;5155441;27;19966;-87
2021/08/06 02:45:41;;;;;;;;;;;16.70;99.90;;;;;;5168201;27;19923;-87
2021/08/06 02:48:07;;;;;;;;;;;16.70;99.90;;;;;;5143021;27;19922;-87
2021/08/06 02:50:32;;;;;;;;;;;16.70;99.90;;;;;;5160665;27;20017;-87
2021/08/06 02:52:58;;;;;;;;;;;16.70;99.90;;;;;;5165048;27;19929;-87
2021/08/06 02:55:24;;;;;;;;;;;16.70;99.90;;;;;;5169020;27;20452;-87
2021/08/06 02:57:49;;;;;;;;;;;16.70;99.90;;;;;;5144918;27;19930;-86
2021/08/06 03:00:15;;;;;;;;;;;16.70;99.90;;;;;;5163817;27;19982;-87
2021/08/06 03:02:41;;;;;;;;;;;16.70;99.90;;;;;;5142664;27;19923;-87
2021/08/06 03:05:07;;;;;;;;;;;16.70;99.90;;;;;;5155269;27;19950;-87
2021/08/06 03:07:32;;;;;;;;;;;16.70;99.90;;;;;;5130370;27;20023;-87
2021/08/06 03:09:58;;;;;;;;;;;16.70;99.90;;;;;;5156993;27;19965;-87
2021/08/06 03:12:24;;;;;;;;;;;16.70;99.90;;;;;;5138657;27;20397;-87
2021/08/06 03:14:50;;;;;;;;;;;16.70;99.90;;;;;;5163991;27;19927;-87
2021/08/06 03:17:15;;;;;;;;;;;16.70;99.90;;;;;;5134139;27;19930;-87
2021/08/06 03:19:41;;;;;;;;;;;16.70;99.90;;;;;;5143942;27;20014;-87
2021/08/06 03:22:07;;;;;;;;;;;16.70;99.90;;;;;;5139107;27;20237;-87
2021/08/06 03:24:32;;;;;;;;;;;16.70;99.90;;;;;;5138892;27;19926;-87
2021/08/06 03:26:58;;;;;;;;;;;16.70;99.90;;;;;;5163780;27;19967;-87
2021/08/06 03:29:26;;;;;;;;;;;16.80;99.90;;;;;;5133327;27;19927;-87
2021/08/06 03:31:52;;;;;;;;;;;16.80;99.90;;;;;;5162360;27;19929;-87
2021/08/06 03:34:18;;;;;;;;;;;16.80;99.90;;;;;;5158307;27;19969;-87
2021/08/06 03:36:43;;;;;;;;;;;16.80;99.90;;;;;;5147696;27;19979;-87
2021/08/06 03:39:09;;;;;;;;;;;16.80;99.90;;;;;;5151779;27;19970;-87
2021/08/06 03:41:35;;;;;;;;;;;16.80;99.90;;;;;;5146518;27;20470;-87
2021/08/06 03:44:00;;;;;;;;;;;16.80;99.90;;;;;;5155576;27;19923;-87
2021/08/06 03:46:26;;;;;;;;;;;16.80;99.90;;;;;;5157119;27;19930;-87
2021/08/06 03:48:52;;;;;;;;;;;16.80;99.90;;;;;;5163886;27;20007;-87
2021/08/06 03:51:17;;;;;;;;;;;16.80;99.90;;;;;;5138981;27;19919;-87
2021/08/06 03:53:43;;;;;;;;;;;16.80;99.90;;;;;;5162667;27;20405;-87
2021/08/06 03:56:09;;;;;;;;;;;16.80;99.90;;;;;;5157196;27;20153;-87
2021/08/06 03:58:35;;;;;;;;;;;16.90;99.90;;;;;;5153698;27;20461;-87
2021/08/06 04:01:00;;;;;;;;;;;16.90;99.90;;;;;;5152762;27;20329;-87
2021/08/06 04:03:27;;;;;;;;;;;16.90;99.90;;;;;;5162949;27;19929;-87
2021/08/06 04:05:52;;;;;;;;;;;16.90;99.90;;;;;;5135179;27;20020;-87
2021/08/06 04:08:18;;;;;;;;;;;16.90;99.90;;;;;;5147206;27;19923;-88
2021/08/06 04:10:45;;;;;;;;;;;16.90;99.90;;;;;;5154304;27;20343;-86
2021/08/06 04:13:11;;;;;;;;;;;16.90;99.90;;;;;;5164895;27;19923;-87
2021/08/06 04:15:36;;;;;;;;;;;16.90;99.90;;;;;;5147153;27;20314;-87
2021/08/06 04:18:02;;;;;;;;;;;16.90;99.90;;;;;;5147930;27;19919;-87
2021/08/06 04:20:28;;;;;;;;;;;16.90;99.90;;;;;;5137480;27;20004;-87
2021/08/06 04:22:53;;;;;;;;;;;16.90;99.90;;;;;;5147970;27;19919;-87
2021/08/06 04:25:19;;;;;;;;;;;16.90;99.90;;;;;;5157113;27;19946;-86
2021/08/06 04:27:45;;;;;;;;;;;16.90;99.90;;;;;;5149907;27;20386;-87
2021/08/06 04:30:14;;;;;;;;;;;16.90;99.90;;;;;;5168714;27;19927;-87
2021/08/06 04:32:39;;;;;;;;;;;17.00;99.90;;;;;;5169088;27;19967;-87
2021/08/06 04:35:05;;;;;;;;;;;17.00;99.90;;;;;;5149576;27;19919;-87
2021/08/06 04:37:31;;;;;;;;;;;17.00;99.90;;;;;;5168570;27;20397;-87
2021/08/06 04:39:57;;;;;;;;;;;17.00;99.90;;;;;;5150399;27;19922;-87
2021/08/06 04:42:22;;;;;;;;;;;17.00;99.90;;;;;;5149740;27;19922;-87
2021/08/06 04:44:48;;;;;;;;;;;17.00;99.90;;;;;;5168489;27;20372;-87
2021/08/06 04:47:14;;;;;;;;;;;17.10;99.90;;;;;;5149411;27;19925;-87
2021/08/06 04:49:39;;;;;;;;;;;17.10;99.90;;;;;;5169045;27;20454;-87
2021/08/06 04:52:05;;;;;;;;;;;17.10;99.90;;;;;;5157894;27;19930;-87
2021/08/06 04:54:39;;;;;;;;;;;17.10;99.90;;;;;;5147386;27;19923;-87
2021/08/06 04:57:05;;;;;;;;;;;17.10;99.90;;;;;;5146351;27;19923;-87
2021/08/06 04:59:39;;;;;;;;;;;17.20;99.90;;;;;;5130091;27;19923;-87
2021/08/06 05:02:04;;;;;;;;;;;17.20;99.90;;;;;;5147181;27;19972;-87
2021/08/06 05:04:31;;;;;;;;;;;17.20;99.90;;;;;;5147410;27;19929;-87
2021/08/06 05:06:56;;;;;;;;;;;17.20;99.90;;;;;;5146811;27;19919;-87
2021/08/06 05:09:22;;;;;;;;;;;17.30;99.90;;;;;;5147530;27;20271;-87
2021/08/06 05:11:48;;;;;;;;;;;17.30;99.90;;;;;;5128340;27;19919;-87
2021/08/06 05:14:14;;;;;;;;;;;17.30;99.90;;;;;;5128560;27;19927;-87
2021/08/06 05:16:40;;;;;;;;;;;17.30;99.90;;;;;;5146224;27;20390;-87
2021/08/06 05:19:05;;;;;;;;;;;17.30;99.90;;;;;;5149478;27;20343;-87
2021/08/06 05:21:31;;;;;;;;;;;17.30;99.90;;;;;;5167957;27;20443;-87
2021/08/06 05:23:57;;;;;;;;;;;17.30;99.90;;;;;;5168115;27;19999;-87
2021/08/06 05:26:22;;;;;;;;;;;17.30;99.90;;;;;;5148766;27;20389;-87
2021/08/06 05:28:48;;;;;;;;;;;17.40;99.90;;;;;;5146334;27;19963;-87
2021/08/06 05:31:15;;;;;;;;;;;17.40;99.90;;;;;;5146379;27;19927;-87
2021/08/06 05:33:41;;;;;;;;;;;17.40;99.90;;;;;;5115472;27;19929;-87
2021/08/06 05:36:07;;;;;;;;;;;17.50;99.90;;;;;;5138273;27;19920;-87
2021/08/06 05:38:33;;;;;;;;;;;17.50;99.90;;;;;;5146362;27;19927;-87
2021/08/06 05:40:59;;;;;;;;;;;17.50;99.90;;;;;;5147426;27;19926;-87
2021/08/06 05:43:24;;;;;;;;;;;17.50;99.90;;;;;;5167855;27;20281;-87
2021/08/06 05:45:50;;;;;;;;;;;17.60;99.90;;;;;;5167493;27;20373;-87
2021/08/06 05:48:17;;;;;;;;;;;17.60;99.90;;;;;;5167049;27;20042;-87
2021/08/06 05:50:43;;;;;;;;;;;17.60;99.90;;;;;;5167690;27;19922;-87
2021/08/06 05:53:08;;;;;;;;;;;17.60;99.90;;;;;;5129168;27;20164;-87
2021/08/06 05:55:34;;;;;;;;;;;17.70;99.90;;;;;;5146415;27;19923;-87
2021/08/06 05:58:00;;;;;;;;;;;17.70;99.90;;;;;;5146181;27;20464;-87
2021/08/06 06:00:30;;;;;;;;;;;17.70;99.90;;;;;;5146486;27;19934;-87
2021/08/06 06:02:56;;;;;;;;;;;17.80;99.90;;;;;;5146466;27;19923;-87
2021/08/06 06:05:22;;;;;;;;;;;17.80;99.90;;;;;;5147030;27;20374;-87
2021/08/06 06:07:48;;;;;;;;;;;17.80;99.90;;;;;;5146618;27;19961;-87
2021/08/06 06:10:17;;;;;;;;;;;17.90;99.90;;;;;;5145605;27;19930;-87
2021/08/06 06:12:43;;;;;;;;;;;17.90;99.90;;;;;;5146710;27;19952;-87
2021/08/06 06:15:09;;;;;;;;;;;17.90;99.90;;;;;;5146096;27;19933;-86
2021/08/06 06:17:35;;;;;;;;;;;17.90;99.90;;;;;;5146484;27;19923;-87
2021/08/06 06:20:01;;;;;;;;;;;17.90;99.90;;;;;;5156146;27;20358;-87
2021/08/06 06:22:28;;;;;;;;;;;18.00;99.90;;;;;;5118062;27;20218;-87
2021/08/06 06:24:53;;;;;;;;;;;17.90;99.90;;;;;;5133714;27;20566;-87
2021/08/06 06:27:19;;;;;;;;;;;18.00;99.90;;;;;;5127316;27;19927;-87
2021/08/06 06:29:45;;;;;;;;;;;18.00;99.90;;;;;;5123553;27;19919;-87
2021/08/06 06:32:11;;;;;;;;;;;18.00;99.90;;;;;;5145888;27;19935;-87
2021/08/06 06:34:36;;;;;;;;;;;18.00;99.90;;;;;;5127801;27;19964;-87
2021/08/06 06:37:02;;;;;;;;;;;18.00;99.90;;;;;;5146095;27;19923;-87
2021/08/06 06:39:28;;;;;;;;;;;18.00;99.90;;;;;;5150765;27;19933;-87
2021/08/06 06:41:54;;;;;;;;;;;17.90;99.90;;;;;;5149452;27;19922;-87
2021/08/06 06:44:19;;;;;;;;;;;17.80;99.90;;;;;;5152144;27;19915;-87
2021/08/06 06:46:45;;;;;;;;;;;17.80;99.90;;;;;;5170912;27;19958;-87
2021/08/06 06:49:11;;;;;;;;;;;17.80;99.90;;;;;;5171318;27;19923;-87
2021/08/06 06:51:36;;;;;;;;;;;17.80;99.90;;;;;;5144839;27;20378;-87
2021/08/06 06:54:02;;;;;;;;;;;17.80;99.90;;;;;;5131567;27;20431;-87
2021/08/06 06:56:28;;;;;;;;;;;17.80;99.90;;;;;;5127598;27;19975;-87
2021/08/06 06:58:53;;;;;;;;;;;17.80;99.90;;;;;;5146766;27;19975;-88
2021/08/06 07:01:19;;;;;;;;;;;17.90;99.90;;;;;;5149195;27;19923;-88
2021/08/06 07:03:45;;;;;;;;;;;17.80;99.90;;;;;;5148921;27;19949;-87
2021/08/06 07:06:10;;;;;;;;;;;17.90;99.90;;;;;;5137233;27;19930;-87
2021/08/06 07:08:38;;;;;;;;;;;17.90;99.90;;;;;;5129008;27;20002;-87
2021/08/06 07:11:05;;;;;;;;;;;17.90;99.90;;;;;;5128366;27;19926;-87
2021/08/06 07:13:31;;;;;;;;;;;18.00;99.90;;;;;;5127638;27;19923;-87
2021/08/06 07:15:57;;;;;;;;;;;18.00;99.90;;;;;;5128848;27;19934;-87
2021/08/06 07:18:22;;;;;;;;;;;18.00;99.90;;;;;;5128752;27;19923;-87
2021/08/06 07:20:48;;;;;;;;;;;18.10;99.90;;;;;;5143965;27;19923;-87
2021/08/06 07:23:15;;;;;;;;;;;18.10;99.90;;;;;;5148216;27;19919;-87
2021/08/06 07:25:40;;;;;;;;;;;18.20;99.90;;;;;;5135869;27;19963;-87
2021/08/06 07:28:06;;;;;;;;;;;18.20;99.90;;;;;;5128809;27;19963;-87
2021/08/06 07:30:32;;;;;;;;;;;18.30;99.90;;;;;;5121004;27;19923;-87
2021/08/06 07:32:58;;;;;;;;;;;18.40;99.90;;;;;;5127759;27;20305;-87
2021/08/06 07:35:25;;;;;;;;;;;18.50;99.90;;;;;;5127347;27;19923;-87
2021/08/06 07:37:51;;;;;;;;;;;18.70;99.90;;;;;;5128407;27;19954;-87
2021/08/06 07:40:17;;;;;;;;;;;18.80;99.90;;;;;;5127710;27;20469;-87
2021/08/06 07:42:43;;;;;;;;;;;18.90;99.90;;;;;;5139303;27;19930;-87
2021/08/06 07:45:09;;;;;;;;;;;19.00;99.90;;;;;;5129634;27;20366;-87
2021/08/06 07:47:34;;;;;;;;;;;19.00;99.90;;;;;;5132838;27;19934;-87
2021/08/06 07:50:00;;;;;;;;;;;19.10;99.90;;;;;;5135869;27;20308;-87
2021/08/06 07:52:26;;;;;;;;;;;19.10;99.90;;;;;;5136839;27;19923;-87
2021/08/06 07:54:51;;;;;;;;;;;19.10;99.90;;;;;;5128521;27;20325;-87
2021/08/06 07:57:17;;;;;;;;;;;19.10;99.90;;;;;;5154368;27;19923;-87
2021/08/06 07:59:43;;;;;;;;;;;19.10;99.90;;;;;;5136654;27;20037;-87
2021/08/06 08:02:09;;;;;;;;;;;19.10;99.90;;;;;;5158335;27;19918;-87
2021/08/06 08:04:35;;;;;;;;;;;19.10;99.90;;;;;;5154217;27;20382;-87
2021/08/06 08:07:01;;;;;;;;;;;19.10;99.90;;;;;;5166646;27;19926;-87
2021/08/06 08:09:26;;;;;;;;;;;19.20;99.90;;;;;;5169522;27;19967;-87
2021/08/06 08:11:52;;;;;;;;;;;19.20;99.90;;;;;;5151270;27;19954;-88
2021/08/06 08:14:18;;;;;;;;;;;19.20;99.90;;;;;;5168928;27;19926;-88
2021/08/06 08:16:44;;;;;;;;;;;19.20;99.90;;;;;;5169316;27;19919;-88
2021/08/06 08:19:09;;;;;;;;;;;19.30;99.90;;;;;;5153902;27;21333;-87
2021/08/06 08:21:35;;;;;;;;;;;19.30;99.90;;;;;;5128146;27;20385;-87
2021/08/06 08:24:01;;;;;;;;;;;19.30;99.90;;;;;;5117418;27;19919;-87
2021/08/06 08:26:27;;;;;;;;;;;19.30;99.90;;;;;;5164194;27;19969;-87
2021/08/06 08:28:52;;;;;;;;;;;19.30;99.90;;;;;;5149177;27;20324;-87
2021/08/06 08:31:18;;;;;;;;;;;19.30;99.90;;;;;;5148506;27;19925;-87
2021/08/06 08:33:45;;;;;;;;;;;19.40;99.90;;;;;;5128514;27;19949;-87
2021/08/06 08:36:10;;;;;;;;;;;19.30;99.90;;;;;;5129267;27;20370;-87
2021/08/06 08:38:36;;;;;;;;;;;19.20;99.90;;;;;;5129509;27;19927;-88
2021/08/06 08:41:02;;;;;;;;;;;19.30;99.90;;;;;;5148207;27;20003;-88
2021/08/06 08:43:28;;;;;;;;;;;19.30;99.90;;;;;;5128550;27;20046;-88
2021/08/06 08:45:54;;;;;;;;;;;19.30;99.90;;;;;;5129738;27;20014;-88
2021/08/06 08:48:20;;;;;;;;;;;19.30;99.90;;;;;;5147800;27;19975;-88
2021/08/06 08:50:46;;;;;;;;;;;19.20;99.90;;;;;;5148063;27;20339;-87
2021/08/06 08:53:11;;;;;;;;;;;19.10;99.90;;;;;;5166859;27;19945;-87
2021/08/06 08:55:38;;;;;;;;;;;19.00;99.90;;;;;;5167718;27;20010;-88
2021/08/06 08:58:04;;;;;;;;;;;18.90;99.90;;;;;;5152451;27;19930;-88
2021/08/06 09:00:30;;;;;;;;;;;18.90;99.90;;;;;;5149267;27;19971;-88
2021/08/06 09:02:56;;;;;;;;;;;18.90;99.90;;;;;;5148205;27;20563;-88
2021/08/06 09:05:26;;;;;;;;;;;18.90;99.90;;;;;;5145912;27;20022;-87
2021/08/06 09:07:53;;;;;;;;;;;18.90;99.90;;;;;;5129512;27;19930;-88
2021/08/06 09:10:20;;;;;;;;;;;18.90;99.90;;;;;;5122954;27;19923;-88
2021/08/06 09:12:45;;;;;;;;;;;18.90;99.90;;;;;;5147585;27;19933;-87
2021/08/06 09:15:11;;;;;;;;;;;19.00;99.90;;;;;;5146666;27;20390;-88
2021/08/06 09:17:37;;;;;;;;;;;19.00;99.90;;;;;;5137176;27;19914;-88
2021/08/06 09:20:07;;;;;;;;;;;19.10;99.90;;;;;;5167818;27;19922;-88
2021/08/06 09:22:38;;;;;;;;;;;19.20;99.90;;;;;;5160435;27;20393;-88
2021/08/06 09:25:06;;;;;;;;;;;19.20;99.90;;;;;;5163102;27;19962;-88
2021/08/06 09:27:33;;;;;;;;;;;19.20;99.90;;;;;;5155999;27;19922;-87
2021/08/06 09:30:00;;;;;;;;;;;19.30;99.90;;;;;;5135742;27;19968;-88
2021/08/06 09:32:43;;;;;;;;;;;19.40;99.90;;;;;;5136776;27;19930;-87
2021/08/06 09:35:14;;;;;;;;;;;19.40;99.90;;;;;;5156015;27;19927;-88
2021/08/06 09:37:40;;;;;;;;;;;19.50;99.90;;;;;;5151823;27;19972;-88
2021/08/06 09:40:11;;;;;;;;;;;19.60;99.90;;;;;;5126832;27;19923;-87
2021/08/06 09:42:38;;;;;;;;;;;19.70;99.90;;;;;;5145268;27;19923;-87
2021/08/06 09:45:04;;;;;;;;;;;19.70;99.90;;;;;;5153330;27;20046;-87
2021/08/06 09:47:30;;;;;;;;;;;19.80;99.90;;;;;;5154666;27;20464;-87
2021/08/06 09:49:57;;;;;;;;;;;19.80;99.90;;;;;;5153919;27;19923;-88
2021/08/06 09:52:26;;;;;;;;;;;19.80;99.90;;;;;;5135534;27;19962;-87
2021/08/06 09:54:52;;;;;;;;;;;19.80;99.90;;;;;;5145056;27;19927;-88
2021/08/06 09:57:18;;;;;;;;;;;19.70;99.90;;;;;;5125577;27;20401;-87
2021/08/06 09:59:49;;;;;;;;;;;19.70;99.90;;;;;;5154723;27;19923;-87
2021/08/06 10:02:18;;;;;;;;;;;19.60;99.90;;;;;;5151828;27;20011;-87
2021/08/06 10:04:54;;;;;;;;;;;19.50;99.90;;;;;;5144571;27;19919;-87
2021/08/06 10:07:20;;;;;;;;;;;19.50;99.90;;;;;;5127111;27;19919;-87
2021/08/06 10:09:46;;;;;;;;;;;19.50;99.90;;;;;;5146319;27;20276;-87
2021/08/06 10:12:12;;;;;;;;;;;19.60;99.90;;;;;;5146810;27;20349;-87
2021/08/06 10:14:37;;;;;;;;;;;19.60;99.90;;;;;;5127868;27;20041;-88
2021/08/06 10:17:03;;;;;;;;;;;19.70;99.90;;;;;;5152470;27;19926;-87
2021/08/06 10:19:29;;;;;;;;;;;19.80;99.90;;;;;;5153124;27;19914;-87
2021/08/06 10:21:56;;;;;;;;;;;19.90;99.90;;;;;;5171631;27;19929;-88
2021/08/06 10:24:22;;;;;;;;;;;20.00;99.90;;;;;;5150306;27;20019;-88
2021/08/06 10:26:48;;;;;;;;;;;20.10;99.90;;;;;;5131429;27;20370;-88
2021/08/06 10:29:14;;;;;;;;;;;20.10;99.90;;;;;;5137583;27;20437;-87
2021/08/06 10:31:40;;;;;;;;;;;20.10;99.90;;;;;;5152356;27;20059;-88
2021/08/06 10:34:08;;;;;;;;;;;20.20;99.90;;;;;;5171337;27;20032;-88
2021/08/06 10:36:45;;;;;;;;;;;20.20;99.90;;;;;;5152328;27;19949;-88
2021/08/06 10:39:26;;;;;;;;;;;20.30;99.90;;;;;;5152544;27;20459;-87
2021/08/06 10:41:52;;;;;;;;;;;20.30;99.90;;;;;;5171054;27;20382;-88
2021/08/06 10:44:18;;;;;;;;;;;20.20;99.90;;;;;;5171301;27;20424;-87
2021/08/06 10:46:49;;;;;;;;;;;20.30;99.90;;;;;;5171170;27;20696;-88
2021/08/06 10:49:15;;;;;;;;;;;20.30;99.90;;;;;;5151972;27;20057;-88
2021/08/06 10:51:40;;;;;;;;;;;20.40;99.90;;;;;;5146188;27;19962;-88
2021/08/06 10:54:06;;;;;;;;;;;20.60;99.90;;;;;;5149984;27;19923;-87
2021/08/06 10:56:33;;;;;;;;;;;20.70;99.90;;;;;;5130853;27;20014;-87
2021/08/06 10:59:12;;;;;;;;;;;20.80;99.90;;;;;;5169677;27;20651;-87
2021/08/06 11:01:42;;;;;;;;;;;20.90;99.90;;;;;;5155637;27;19927;-87
2021/08/06 11:04:11;;;;;;;;;;;20.90;99.90;;;;;;5140395;27;19979;-87
2021/08/06 11:06:36;;;;;;;;;;;20.80;99.90;;;;;;5152469;27;20025;-87
2021/08/06 11:09:03;;;;;;;;;;;20.80;99.90;;;;;;5144463;27;20002;-88
2021/08/06 11:11:52;;;;;;;;;;;20.70;99.90;;;;;;5149692;27;19953;-88
2021/08/06 11:14:30;;;;;;;;;;;20.70;99.90;;;;;;5135774;27;20322;-87
2021/08/06 11:16:57;;;;;;;;;;;20.70;99.90;;;;;;5149656;27;20299;-87
2021/08/06 11:19:30;;;;;;;;;;;20.70;99.90;;;;;;5149241;27;20382;-87
2021/08/06 11:21:56;;;;;;;;;;;20.80;99.90;;;;;;5149532;27;20046;-88
2021/08/06 11:24:22;;;;;;;;;;;20.80;99.90;;;;;;5149414;27;19970;-87
2021/08/06 11:26:49;;;;;;;;;;;20.80;99.90;;;;;;5149180;27;20412;-87
2021/08/06 11:29:15;;;;;;;;;;;20.90;99.90;;;;;;5148127;27;20564;-88
2021/08/06 11:31:41;;;;;;;;;;;21.00;99.90;;;;;;5149168;27;19923;-88
2021/08/06 11:34:07;;;;;;;;;;;21.00;99.90;;;;;;5130809;27;19923;-88
2021/08/06 11:36:34;;;;;;;;;;;20.90;99.90;;;;;;5130297;27;19975;-87
2021/08/06 11:39:14;;;;;;;;;;;20.90;99.90;;;;;;5148813;27;20286;-88
2021/08/06 11:42:10;;;;;;;;;;;21.00;99.90;;;;;;5148827;27;20270;-87
2021/08/06 11:44:36;;;;;;;;;;;21.10;99.90;;;;;;5147157;27;19919;-87
2021/08/06 11:47:01;;;;;;;;;;;21.20;99.90;;;;;;5117076;27;19969;-87
2021/08/06 11:49:27;;;;;;;;;;;21.30;99.90;;;;;;5148409;27;19919;-88
2021/08/06 11:51:54;;;;;;;;;;;21.20;99.90;;;;;;5137946;27;20353;-87
2021/08/06 11:54:23;;;;;;;;;;;21.20;99.90;;;;;;5169814;27;19918;-87
2021/08/06 11:56:59;;;;;;;;;;;21.30;99.90;;;;;;5163586;27;19992;-88
2021/08/06 11:59:25;;;;;;;;;;;21.50;99.90;;;;;;5148159;27;19961;-87
2021/08/06 12:02:10;;;;;;;;;;;21.60;99.90;;;;;;5157092;27;19976;-87
2021/08/06 12:04:35;;;;;;;;;;;21.60;99.90;;;;;;5148321;27;20301;-88
2021/08/06 12:07:01;;;;;;;;;;;21.60;99.90;;;;;;5148766;27;19923;-87
2021/08/06 12:09:27;;;;;;;;;;;21.60;99.90;;;;;;5148460;27;20293;-88
2021/08/06 12:11:52;;;;;;;;;;;21.50;99.90;;;;;;5147767;27;19915;-88
2021/08/06 12:14:25;;;;;;;;;;;21.40;99.90;;;;;;5129804;27;19923;-88
2021/08/06 12:16:51;;;;;;;;;;;21.50;99.90;;;;;;5121198;27;19977;-87
2021/08/06 12:19:16;;;;;;;;;;;21.50;99.90;;;;;;5114612;27;19927;-88
2021/08/06 12:21:44;;;;;;;;;;;21.50;99.90;;;;;;5129782;27;19923;-87
2021/08/06 12:24:10;;;;;;;;;;;21.40;99.90;;;;;;5145718;27;19929;-88
2021/08/06 12:26:35;;;;;;;;;;;21.40;99.90;;;;;;5156989;27;19915;-86
2021/08/06 12:29:07;;;;;;;;;;;21.30;99.90;;;;;;5168979;27;19923;-87
2021/08/06 12:31:33;;;;;;;;;;;21.30;99.90;;;;;;5168294;27;19922;-88
2021/08/06 12:34:07;;;;;;;;;;;21.40;99.90;;;;;;5169069;27;19919;-87
2021/08/06 12:36:34;;;;;;;;;;;21.40;99.90;;;;;;5160695;27;20260;-87
2021/08/06 12:39:13;;;;;;;;;;;21.50;99.90;;;;;;5147035;27;19927;-88
2021/08/06 12:41:44;;;;;;;;;;;21.50;99.90;;;;;;5146934;27;20438;-87
2021/08/06 12:44:16;;;;;;;;;;;21.60;99.90;;;;;;5129679;27;20301;-87
2021/08/06 12:47:03;;;;;;;;;;;21.70;99.90;;;;;;5147933;27;20166;-87
2021/08/06 12:49:40;;;;;;;;;;;21.80;99.90;;;;;;5129245;27;19916;-87
2021/08/06 12:52:08;;;;;;;;;;;21.90;99.90;;;;;;5149761;27;19957;-87
2021/08/06 12:54:39;;;;;;;;;;;21.80;99.90;;;;;;5128975;27;20317;-87
2021/08/06 12:57:08;;;;;;;;;;;21.70;99.90;;;;;;5159903;27;20428;-88
2021/08/06 12:59:34;;;;;;;;;;;21.70;99.90;;;;;;5168217;27;19919;-87
2021/08/06 13:02:21;;;;;;;;;;;21.80;99.90;;;;;;5128232;27;19923;-87
2021/08/06 13:04:47;;;;;;;;;;;21.80;99.90;;;;;;5147477;27;19974;-87
2021/08/06 13:07:27;;;;;;;;;;;21.80;99.90;;;;;;5128809;27;19970;-87
2021/08/06 13:09:53;;;;;;;;;;;21.90;99.90;;;;;;5128408;27;20022;-87
2021/08/06 13:12:18;;;;;;;;;;;21.80;99.90;;;;;;5152776;27;20009;-87
2021/08/06 13:14:45;;;;;;;;;;;21.70;99.90;;;;;;5167763;27;20221;-87
2021/08/06 13:17:12;;;;;;;;;;;21.60;99.90;;;;;;5162987;27;19969;-87
2021/08/06 13:19:38;;;;;;;;;;;21.50;99.90;;;;;;5147284;27;19929;-87
2021/08/06 13:22:05;;;;;;;;;;;21.40;99.90;;;;;;5146932;27;19922;-87
2021/08/06 13:24:31;;;;;;;;;;;21.30;99.90;;;;;;5128596;27;19923;-87
2021/08/06 13:26:57;;;;;;;;;;;21.20;99.90;;;;;;5146919;27;20429;-87
2021/08/06 13:29:22;;;;;;;;;;;21.10;99.90;;;;;;5146890;27;20455;-87
2021/08/06 13:31:48;;;;;;;;;;;20.90;99.90;;;;;;5146751;27;19926;-87
2021/08/06 13:34:14;;;;;;;;;;;20.80;99.90;;;;;;5146350;27;19936;-87
2021/08/06 13:36:39;;;;;;;;;;;20.70;99.90;;;;;;5147000;27;19962;-87
2021/08/06 13:39:06;;;;;;;;;;;20.60;99.90;;;;;;5147046;27;19966;-87
2021/08/06 13:41:32;;;;;;;;;;;20.60;99.90;;;;;;5128139;27;19919;-87
2021/08/06 13:43:58;;;;;;;;;;;20.50;99.90;;;;;;5127789;27;20008;-87
2021/08/06 13:46:24;;;;;;;;;;;20.50;99.90;;;;;;5127982;27;19943;-87
2021/08/06 13:48:49;;;;;;;;;;;20.40;99.90;;;;;;5128328;27;19919;-87
2021/08/06 13:51:15;;;;;;;;;;;20.40;99.90;;;;;;5130091;27;20394;-87
2021/08/06 13:53:41;;;;;;;;;;;20.40;99.90;;;;;;5113697;27;20404;-87
2021/08/06 13:56:06;;;;;;;;;;;20.40;99.90;;;;;;5146448;27;19923;-87
2021/08/06 13:58:33;;;;;;;;;;;20.40;99.90;;;;;;5124450;27;19928;-87
2021/08/06 14:01:00;;;;;;;;;;;20.30;99.90;;;;;;5137438;27;19983;-87
2021/08/06 14:03:26;;;;;;;;;;;20.20;99.90;;;;;;5145773;27;19919;-87
2021/08/06 14:05:52;;;;;;;;;;;20.20;99.90;;;;;;5146636;27;19923;-87
2021/08/06 14:08:17;;;;;;;;;;;20.20;99.90;;;;;;5146762;27;20021;-87
2021/08/06 14:10:43;;;;;;;;;;;20.10;99.90;;;;;;5134661;27;19920;-86
2021/08/06 14:13:09;;;;;;;;;;;20.00;99.90;;;;;;5138866;27;19926;-87
2021/08/06 14:15:35;;;;;;;;;;;19.90;99.90;;;;;;5146129;27;20012;-87